Time;durP1;ratioP1;P1;durP2;ratioP2;P2;SDS_P1;SDS_P2;PMS_P1;PMS_P2;Temp;Humidity;BMP_temperature;BMP_pressure;BME280_temperature;BME280_humidity;BME280_pressure;Samples;Min_cycle;Max_cycle;Signal;HPM_P1;HPM_P2
2022/02/19 00:14:15;;;;;;;24.60;12.00;;;;;;;0.01;82.17;98877.17;109448;1271;138980;-59
2022/02/19 00:16:44;;;;;;;25.00;11.10;;;;;;;0.03;81.94;98872.23;109508;1273;22581;-59
2022/02/19 00:19:12;;;;;;;22.90;10.10;;;;;;;0.05;81.93;98864.86;109471;1272;22430;-59
2022/02/19 00:21:41;;;;;;;20.40;9.10;;;;;;;0.07;81.92;98864.58;109434;1271;138665;-59
2022/02/19 00:24:09;;;;;;;25.50;11.00;;;;;;;0.09;81.95;98867.16;109448;1271;22461;-60
2022/02/19 00:26:37;;;;;;;27.80;11.30;;;;;;;0.10;82.13;98863.14;109507;1271;137642;-59
2022/02/19 00:29:06;;;;;;;19.30;11.00;;;;;;;0.11;81.79;98861.33;109467;1271;22456;-60
2022/02/19 00:31:39;;;;;;;22.90;12.20;;;;;;;0.12;81.95;98855.55;109578;1271;23646;-60
2022/02/19 00:34:08;;;;;;;23.60;11.20;;;;;;;0.12;81.78;98846.58;109301;1273;137254;-59
2022/02/19 00:36:36;;;;;;;17.20;9.20;;;;;;;0.09;81.95;98842.98;109509;1273;22649;-59
2022/02/19 00:39:06;;;;;;;19.60;9.20;;;;;;;0.11;81.52;98839.90;109461;1271;138496;-59
2022/02/19 00:41:34;;;;;;;21.40;9.70;;;;;;;0.11;81.53;98826.76;109579;1270;22470;-60
2022/02/19 00:44:02;;;;;;;17.30;7.40;;;;;;;0.10;81.71;98812.16;109506;1271;138535;-59
2022/02/19 00:46:33;;;;;;;14.40;7.70;;;;;;;0.11;81.67;98814.39;109443;1273;23730;-59
2022/02/19 00:49:04;;;;;;;14.50;6.40;;;;;;;0.13;81.87;98811.00;109433;1272;22512;-59
2022/02/19 00:51:32;;;;;;;18.30;6.50;;;;;;;0.15;82.01;98803.83;109207;1273;139120;-59
2022/02/19 00:54:00;;;;;;;16.60;6.90;;;;;;;0.15;81.60;98798.84;109362;1273;23207;-59
2022/02/19 00:56:28;;;;;;;14.20;5.90;;;;;;;0.20;81.74;98790.46;109297;1273;138536;-59
2022/02/19 00:58:56;;;;;;;11.30;5.00;;;;;;;0.24;82.04;98793.89;109383;1273;22566;-57
2022/02/19 01:01:24;;;;;;;13.50;5.60;;;;;;;0.27;81.94;98787.16;109456;1271;22476;-56
2022/02/19 01:04:01;;;;;;;13.50;5.40;;;;;;;0.30;81.67;98786.14;109220;1273;137637;-60
2022/02/19 01:06:31;;;;;;;12.80;6.00;;;;;;;0.33;81.80;98794.35;109498;1271;22456;-60
2022/02/19 01:09:00;;;;;;;14.00;6.60;;;;;;;0.36;81.50;98783.55;109446;1271;137507;-59
2022/02/19 01:11:28;;;;;;;13.30;6.00;;;;;;;0.37;81.43;98786.73;109397;1272;197532;-59
2022/02/19 01:15:31;;;;;;;14.40;5.90;;;;;;;0.45;80.94;98784.13;101664;1309;545720;-59
2022/02/19 01:18:00;;;;;;;14.70;6.70;;;;;;;0.45;80.93;98787.34;103928;1287;25357;-59
2022/02/19 01:20:28;;;;;;;13.60;6.70;;;;;;;0.47;80.68;98777.11;103799;1287;138285;-59
2022/02/19 01:22:56;;;;;;;22.40;7.60;;;;;;;0.47;80.81;98772.91;103951;1287;25420;-59
2022/02/19 01:25:24;;;;;;;11.40;5.70;;;;;;;0.48;80.64;98770.80;103817;1288;23036;-59
2022/02/19 01:27:54;;;;;;;14.40;6.10;;;;;;;0.49;80.65;98764.55;103647;1287;138408;-59
2022/02/19 01:30:22;;;;;;;19.20;6.70;;;;;;;0.50;80.74;98754.94;104282;1281;22571;-59
2022/02/19 01:32:55;;;;;;;14.20;6.10;;;;;;;0.50;80.72;98751.30;104179;1282;136911;-60
2022/02/19 01:35:23;;;;;;;11.80;5.40;;;;;;;0.49;80.63;98749.77;104408;1281;25454;-60
2022/02/19 01:37:51;;;;;;;14.80;6.30;;;;;;;0.49;80.58;98740.66;104367;1280;25584;-60
2022/02/19 01:40:21;;;;;;;12.90;6.10;;;;;;;0.50;80.46;98735.39;104182;1283;137094;-59
2022/02/19 01:42:50;;;;;;;14.50;6.90;;;;;;;0.51;80.60;98735.14;104234;1284;25196;-58
2022/02/19 01:45:20;;;;;;;13.00;5.70;;;;;;;0.50;80.51;98731.98;103910;1285;137318;-60
2022/02/19 01:47:49;;;;;;;12.10;5.60;;;;;;;0.51;80.36;98734.19;109107;1277;23777;-58
2022/02/19 01:50:19;;;;;;;11.30;5.20;;;;;;;0.52;80.69;98739.71;109236;1274;137828;-58
2022/02/19 01:52:49;;;;;;;10.20;4.90;;;;;;;0.54;80.29;98736.56;109341;1273;22475;-58
2022/02/19 01:55:26;;;;;;;12.10;5.90;;;;;;;0.57;80.54;98737.85;109317;1274;23279;-58
2022/02/19 01:58:12;;;;;;;13.60;5.30;;;;;;;0.59;80.46;98734.89;109339;1274;137397;-58
2022/02/19 02:00:43;;;;;;;13.80;5.10;;;;;;;0.59;80.17;98727.30;109401;1273;23508;-58
2022/02/19 02:03:31;;;;;;;10.60;5.30;;;;;;;0.59;80.29;98725.69;109155;1274;137759;-58
2022/02/19 02:06:05;;;;;;;13.00;6.00;;;;;;;0.60;80.34;98719.00;109349;1273;22476;-58
2022/02/19 02:08:33;;;;;;;10.80;6.20;;;;;;;0.60;80.35;98716.94;109228;1274;137569;-58
2022/02/19 02:11:02;;;;;;;12.00;6.10;;;;;;;0.61;80.40;98715.05;109404;1273;22705;-58
2022/02/19 02:13:40;;;;;;;14.80;7.80;;;;;;;0.60;80.06;98722.72;109362;1273;22535;-58
2022/02/19 02:16:08;;;;;;;13.90;7.30;;;;;;;0.60;80.48;98723.95;109168;1274;136979;-58
2022/02/19 02:18:52;;;;;;;14.20;6.90;;;;;;;0.62;80.24;98723.33;109295;1274;22550;-58
2022/02/19 02:21:23;;;;;;;14.80;7.10;;;;;;;0.62;80.33;98719.91;109253;1274;138526;-58
2022/02/19 02:23:52;;;;;;;13.00;5.60;;;;;;;0.62;80.31;98722.75;109388;1273;22409;-58
2022/02/19 02:26:21;;;;;;;18.00;7.30;;;;;;;0.63;80.25;98726.25;109179;1274;137552;-58
2022/02/19 02:28:50;;;;;;;13.40;6.40;;;;;;;0.65;80.26;98733.52;109297;1274;22507;-58
2022/02/19 02:31:18;;;;;;;12.30;6.40;;;;;;;0.67;80.23;98734.63;109369;1273;22497;-58
2022/02/19 02:33:50;;;;;;;10.50;6.40;;;;;;;0.70;80.45;98730.44;109180;1274;138067;-58
2022/02/19 02:36:18;;;;;;;13.00;6.90;;;;;;;0.74;80.37;98725.70;109238;1274;22541;-59
2022/02/19 02:38:54;;;;;;;13.80;6.90;;;;;;;0.79;80.46;98726.13;109222;1274;138253;-59
2022/02/19 02:41:25;;;;;;;12.10;6.00;;;;;;;0.82;80.13;98727.58;109223;1274;22453;-59
2022/02/19 02:43:55;;;;;;;14.30;6.80;;;;;;;0.85;80.16;98718.36;109260;1274;22481;-58
2022/02/19 02:46:24;;;;;;;11.00;6.00;;;;;;;0.88;80.10;98713.99;109324;1274;136709;-58
2022/02/19 02:48:52;;;;;;;12.40;5.30;;;;;;;0.91;79.91;98704.36;109391;1274;22473;-58
2022/02/19 02:51:20;;;;;;;11.50;5.70;;;;;;;0.93;79.75;98699.23;109230;1274;137187;-58
2022/02/19 02:53:48;;;;;;;16.80;5.50;;;;;;;0.97;79.51;98698.77;109431;1273;22541;-59
2022/02/19 02:56:16;;;;;;;13.80;5.30;;;;;;;1.00;79.46;98693.34;109257;1274;138822;-58
2022/02/19 02:58:44;;;;;;;11.50;5.40;;;;;;;1.03;79.30;98694.50;109269;1274;22460;-58
2022/02/19 03:01:13;;;;;;;10.80;4.90;;;;;;;1.06;79.02;98694.36;109233;1274;22480;-58
2022/02/19 03:03:42;;;;;;;13.10;5.40;;;;;;;1.10;78.87;98686.38;109263;1274;139120;-58
2022/02/19 03:06:12;;;;;;;12.60;6.10;;;;;;;1.15;78.76;98682.36;109359;1274;22465;-59
2022/02/19 03:08:45;;;;;;;15.70;6.80;;;;;;;1.20;78.50;98678.20;109126;1274;137674;-58
2022/02/19 03:11:13;;;;;;;11.20;6.60;;;;;;;1.24;78.16;98677.84;109464;1274;22605;-58
2022/02/19 03:13:44;;;;;;;13.10;6.20;;;;;;;1.29;78.07;98676.17;109400;1273;22479;-58
2022/02/19 03:16:14;;;;;;;8.60;4.90;;;;;;;1.32;77.61;98670.88;109352;1273;137583;-59
2022/02/19 03:18:42;;;;;;;10.30;5.30;;;;;;;1.34;77.50;98666.89;109421;1274;22484;-59
2022/02/19 03:21:10;;;;;;;12.80;5.10;;;;;;;1.37;77.15;98666.88;109366;1273;136861;-58
2022/02/19 03:23:38;;;;;;;11.90;4.60;;;;;;;1.40;76.98;98669.45;109439;1273;23272;-59
2022/02/19 03:26:07;;;;;;;8.20;4.30;;;;;;;1.44;76.48;98661.78;109241;1274;137753;-58
2022/02/19 03:28:36;;;;;;;14.10;5.00;;;;;;;1.47;76.44;98656.13;109498;1273;22441;-58
2022/02/19 03:31:05;;;;;;;9.50;3.90;;;;;;;1.50;76.18;98655.89;109387;1273;23595;-58
2022/02/19 03:33:50;;;;;;;11.40;4.80;;;;;;;1.54;76.15;98656.31;109224;1274;138331;-59
2022/02/19 03:36:22;;;;;;;7.70;4.50;;;;;;;1.57;75.61;98646.41;109331;1274;23728;-59
2022/02/19 03:38:50;;;;;;;9.50;4.20;;;;;;;1.60;75.58;98641.13;109337;1274;138040;-58
2022/02/19 03:41:22;;;;;;;7.10;4.00;;;;;;;1.62;75.53;98629.10;105182;1274;22718;-58
2022/02/19 03:43:51;;;;;;;7.20;4.10;;;;;;;1.65;75.19;98628.94;109435;1272;24688;-59
2022/02/19 03:46:19;;;;;;;11.10;4.30;;;;;;;1.68;74.89;98626.60;109294;1273;136980;-58
2022/02/19 03:48:58;;;;;;;7.00;3.90;;;;;;;1.70;74.74;98630.44;109437;1273;23320;-58
2022/02/19 03:51:26;;;;;;;8.90;3.70;;;;;;;1.72;74.56;98633.14;109297;1273;137531;-59
2022/02/19 03:53:56;;;;;;;7.80;5.30;;;;;;;1.75;74.50;98629.38;109239;1273;22482;-59
2022/02/19 03:56:27;;;;;;;7.80;3.50;;;;;;;1.77;74.32;98623.23;109305;1273;137682;-58
2022/02/19 03:59:05;;;;;;;10.60;3.90;;;;;;;1.80;73.99;98618.21;109341;1273;23168;-59
2022/02/19 04:01:34;;;;;;;13.00;5.00;;;;;;;1.83;73.75;98611.25;109364;1273;22427;-58
2022/02/19 04:04:07;;;;;;;9.20;4.10;;;;;;;1.85;73.65;98597.27;109247;1274;137464;-59
2022/02/19 04:06:38;;;;;;;9.40;3.90;;;;;;;1.87;73.61;98592.33;109264;1274;22400;-58
2022/02/19 04:09:06;;;;;;;9.40;4.10;;;;;;;1.88;73.32;98582.45;109196;1274;137518;-59
2022/02/19 04:11:37;;;;;;;9.40;4.90;;;;;;;1.89;73.36;98578.88;109478;1274;22470;-58
2022/02/19 04:14:06;;;;;;;9.60;4.70;;;;;;;1.90;73.38;98578.41;109378;1273;138298;-59
2022/02/19 04:16:48;;;;;;;11.70;5.20;;;;;;;1.91;73.30;98578.12;109274;1274;22527;-59
2022/02/19 04:19:17;;;;;;;8.70;4.20;;;;;;;1.91;73.05;98585.60;109422;1273;22515;-60
2022/02/19 04:21:45;;;;;;;11.00;4.60;;;;;;;1.91;73.13;98595.75;109285;1274;137946;-59
2022/02/19 04:24:15;;;;;;;9.00;4.20;;;;;;;1.91;72.94;98588.38;109310;1273;22580;-59
2022/02/19 04:26:45;;;;;;;14.00;5.50;;;;;;;1.94;72.74;98589.33;109212;1273;138146;-59
2022/02/19 04:29:13;;;;;;;13.90;4.10;;;;;;;1.96;72.65;98587.61;109226;1273;22465;-59
2022/02/19 04:31:46;;;;;;;10.70;4.30;;;;;;;1.97;72.59;98577.93;109264;1274;23251;-59
2022/02/19 04:34:22;;;;;;;11.90;5.60;;;;;;;1.98;72.57;98564.58;109295;1273;137148;-58
2022/02/19 04:36:50;;;;;;;9.70;4.90;;;;;;;1.97;72.44;98553.75;109388;1272;22463;-59
2022/02/19 04:39:20;;;;;;;10.80;4.70;;;;;;;1.98;72.29;98545.19;109137;1274;137387;-59
2022/02/19 04:41:48;;;;;;;11.60;5.50;;;;;;;1.99;72.07;98546.13;109364;1273;23326;-59
2022/02/19 04:44:18;;;;;;;9.90;5.20;;;;;;;1.97;72.01;98543.29;109115;1274;137301;-60
2022/02/19 04:46:46;;;;;;;9.90;4.80;;;;;;;2.00;71.81;98548.52;109344;1274;22533;-57
2022/02/19 04:49:14;;;;;;;12.10;4.50;;;;;;;2.00;72.08;98564.34;109441;1273;22495;-60
2022/02/19 04:51:42;;;;;;;11.70;4.10;;;;;;;2.03;71.82;98565.63;109329;1273;137965;-59
2022/02/19 04:54:10;;;;;;;11.30;4.40;;;;;;;2.05;71.70;98570.95;109473;1273;23230;-59
2022/02/19 04:56:38;;;;;;;9.60;3.80;;;;;;;2.07;71.74;98564.19;109294;1274;139329;-59
2022/02/19 04:59:08;;;;;;;10.50;4.20;;;;;;;2.08;71.60;98561.91;109384;1273;22424;-60
2022/02/19 05:01:40;;;;;;;8.30;4.40;;;;;;;2.10;71.38;98557.34;109194;1273;22450;-59
2022/02/19 05:04:17;;;;;;;6.80;4.00;;;;;;;2.12;71.34;98541.82;109285;1273;137923;-60
2022/02/19 05:06:56;;;;;;;9.10;4.30;;;;;;;2.14;71.11;98534.77;109403;1272;22508;-59
2022/02/19 05:09:24;;;;;;;7.30;3.60;;;;;;;2.16;70.85;98525.31;109234;1273;136941;-60
2022/02/19 05:11:59;;;;;;;9.30;4.60;;;;;;;2.18;70.89;98517.33;109403;1273;23307;-59
2022/02/19 05:14:27;;;;;;;12.80;3.70;;;;;;;2.18;70.75;98507.19;109197;1274;138483;-59
2022/02/19 05:16:59;;;;;;;10.70;4.00;;;;;;;2.19;70.53;98510.49;109260;1273;22386;-57
2022/02/19 05:19:48;;;;;;;12.60;5.00;;;;;;;2.20;70.63;98516.69;109373;1273;22467;-57
2022/02/19 05:22:17;;;;;;;7.70;3.30;;;;;;;2.21;70.45;98527.17;109229;1274;138035;-57
2022/02/19 05:24:48;;;;;;;11.10;4.20;;;;;;;2.24;70.22;98525.40;109393;1274;22403;-57
2022/02/19 05:27:20;;;;;;;11.70;3.90;;;;;;;2.25;70.12;98524.36;109268;1274;137827;-58
2022/02/19 05:29:49;;;;;;;9.60;3.90;;;;;;;2.28;70.00;98530.68;109190;1274;23669;-58
2022/02/19 05:32:18;;;;;;;12.90;5.90;;;;;;;2.30;69.85;98531.11;109094;1273;137171;-58
2022/02/19 05:35:11;;;;;;;11.70;4.50;;;;;;;2.32;69.73;98525.19;109286;1274;23461;-58
2022/02/19 05:37:40;;;;;;;9.00;3.10;;;;;;;2.33;69.82;98518.23;109263;1274;23177;-58
2022/02/19 05:40:08;;;;;;;8.50;4.10;;;;;;;2.34;69.67;98523.09;109094;1274;137421;-58
2022/02/19 05:42:37;;;;;;;8.60;3.90;;;;;;;2.36;69.65;98530.52;109205;1273;22458;-58
2022/02/19 05:45:21;;;;;;;9.60;3.20;;;;;;;2.36;69.45;98530.46;109310;1274;137145;-58
2022/02/19 05:47:51;;;;;;;6.60;3.70;;;;;;;2.37;69.81;98533.02;109452;1272;22460;-58
2022/02/19 05:50:30;;;;;;;12.20;4.10;;;;;;;2.38;69.84;98539.00;109261;1274;137794;-58
2022/02/19 05:53:12;;;;;;;8.30;3.90;;;;;;;2.36;70.58;98545.36;109277;1273;23692;-58
2022/02/19 05:55:45;;;;;;;9.60;3.80;;;;;;;2.36;71.00;98543.13;109311;1274;22554;-58
2022/02/19 05:58:13;;;;;;;8.20;3.20;;;;;;;2.34;71.55;98540.39;109205;1274;138859;-58
2022/02/19 06:00:51;;;;;;;10.40;4.00;;;;;;;2.33;72.17;98546.23;109357;1273;22514;-58
2022/02/19 06:03:19;;;;;;;11.20;4.10;;;;;;;2.31;72.93;98541.13;109295;1273;139003;-58
2022/02/19 06:05:47;;;;;;;11.10;3.10;;;;;;;2.27;73.39;98541.36;109348;1274;22405;-58
2022/02/19 06:08:16;;;;;;;14.10;4.50;;;;;;;2.23;74.10;98545.96;109105;1274;138184;-58
2022/02/19 06:10:45;;;;;;;16.30;5.40;;;;;;;2.16;74.55;98546.47;109507;1271;22566;-58
2022/02/19 06:13:14;;;;;;;17.00;6.10;;;;;;;2.07;75.49;98547.63;109417;1273;22527;-58
2022/02/19 06:15:48;;;;;;;8.20;4.40;;;;;;;1.95;76.06;98554.45;109291;1274;137168;-58
2022/02/19 06:18:39;;;;;;;10.00;4.50;;;;;;;1.86;76.91;98552.20;109445;1273;22446;-58
2022/02/19 06:21:07;;;;;;;7.50;3.50;;;;;;;1.78;77.42;98540.98;109316;1273;140015;-58
2022/02/19 06:23:41;;;;;;;8.10;3.20;;;;;;;1.70;78.15;98532.43;109441;1273;22509;-58
2022/02/19 06:26:09;;;;;;;11.90;3.80;;;;;;;1.65;78.48;98514.34;109325;1274;138319;-58
2022/02/19 06:28:51;;;;;;;9.40;3.70;;;;;;;1.61;79.06;98494.30;109412;1271;22543;-58
2022/02/19 06:31:20;;;;;;;6.70;3.50;;;;;;;1.58;79.48;98479.36;109405;1273;22451;-58
2022/02/19 06:33:48;;;;;;;8.00;3.60;;;;;;;1.57;79.72;98468.77;109247;1274;140060;-58
2022/02/19 06:36:18;;;;;;;6.80;3.40;;;;;;;1.58;80.08;98470.44;109271;1274;22448;-58
2022/02/19 06:38:47;;;;;;;7.00;3.20;;;;;;;1.61;80.08;98484.54;109258;1274;139050;-57
2022/02/19 06:41:17;;;;;;;9.30;3.60;;;;;;;1.64;80.16;98496.08;109320;1274;22528;-60
2022/02/19 06:43:53;;;;;;;8.50;3.90;;;;;;;1.70;80.26;98498.12;109349;1274;23465;-60
2022/02/19 06:46:22;;;;;;;8.70;4.30;;;;;;;1.75;80.01;98501.73;109163;1273;138747;-60
2022/02/19 06:48:50;;;;;;;9.30;3.70;;;;;;;1.80;79.75;98500.96;109322;1273;22473;-60
2022/02/19 06:51:18;;;;;;;6.00;3.10;;;;;;;1.84;79.55;98495.38;109327;1273;138317;-60
2022/02/19 06:53:46;;;;;;;9.50;3.70;;;;;;;1.87;79.11;98488.27;109385;1273;22494;-60
2022/02/19 06:56:15;;;;;;;9.20;4.00;;;;;;;1.90;78.39;98469.75;109270;1272;137733;-60
2022/02/19 06:58:43;;;;;;;8.60;3.60;;;;;;;1.92;78.10;98463.64;109414;1273;22519;-60
2022/02/19 07:01:11;;;;;;;9.60;3.60;;;;;;;1.97;77.58;98453.17;109374;1273;23108;-60
2022/02/19 07:03:39;;;;;;;8.10;4.00;;;;;;;2.00;77.12;98449.13;109362;1273;138510;-60
2022/02/19 07:06:28;;;;;;;10.50;3.50;;;;;;;2.05;76.43;98430.02;109346;1273;22508;-60
2022/02/19 07:08:56;;;;;;;10.00;4.30;;;;;;;2.10;75.83;98417.27;109198;1274;139698;-60
2022/02/19 07:11:24;;;;;;;6.60;3.10;;;;;;;2.17;75.17;98407.90;109348;1273;22491;-60
2022/02/19 07:13:52;;;;;;;9.10;4.10;;;;;;;2.23;74.59;98418.49;109322;1273;22471;-60
2022/02/19 07:16:21;;;;;;;8.30;3.70;;;;;;;2.31;73.91;98426.42;109166;1272;137407;-60
2022/02/19 07:18:53;;;;;;;8.80;3.80;;;;;;;2.37;73.44;98430.88;109336;1274;22412;-60
2022/02/19 07:21:22;;;;;;;7.90;3.70;;;;;;;2.43;72.86;98418.88;109202;1273;139183;-60
2022/02/19 07:23:49;;;;;;;9.70;3.60;;;;;;;2.48;72.46;98391.08;109284;1273;22476;-60
2022/02/19 07:26:21;;;;;;;9.10;4.00;;;;;;;2.54;72.06;98390.89;109271;1273;137634;-60
2022/02/19 07:28:52;;;;;;;9.00;3.50;;;;;;;2.60;71.89;98382.31;109389;1272;24481;-60
2022/02/19 07:31:20;;;;;;;7.00;3.30;;;;;;;2.63;71.27;98369.16;109287;1273;22470;-60
2022/02/19 07:33:49;;;;;;;6.90;3.00;;;;;;;2.68;70.89;98363.63;109346;1272;138188;-61
2022/02/19 07:36:25;;;;;;;8.70;3.20;;;;;;;2.74;70.53;98369.84;109331;1274;22224;-60
2022/02/19 07:38:53;;;;;;;10.00;3.50;;;;;;;2.79;70.31;98382.31;109224;1273;139188;-60
2022/02/19 07:41:23;;;;;;;6.80;3.30;;;;;;;2.81;70.23;98394.90;109298;1273;22483;-58
2022/02/19 07:44:06;;;;;;;10.50;3.80;;;;;;;2.88;69.79;98404.09;109338;1273;137671;-59
2022/02/19 07:46:52;;;;;;;12.60;3.10;;;;;;;2.92;69.70;98404.38;109451;1273;23624;-59
2022/02/19 07:58:26;;;;;;;5.40;3.10;;;;;;;3.02;68.74;98408.70;109159;1274;138060;-58
2022/02/19 08:00:56;;;;;;;10.00;3.60;;;;;;;3.04;68.57;98409.27;109410;1272;22407;-59
2022/02/19 08:03:26;;;;;;;7.30;3.20;;;;;;;3.07;68.57;98425.04;109222;1273;137308;-59
2022/02/19 08:06:03;;;;;;;9.60;3.60;;;;;;;3.10;68.46;98426.84;109259;1273;22519;-58
2022/02/19 08:08:33;;;;;;;8.40;3.80;;;;;;;3.14;68.45;98450.83;109181;1273;139040;-59
2022/02/19 08:11:05;;;;;;;9.10;3.80;;;;;;;3.20;68.40;98446.19;109360;1273;22413;-59
2022/02/19 08:13:33;;;;;;;9.80;4.20;;;;;;;3.25;68.40;98429.61;109409;1271;23274;-59
2022/02/19 08:16:00;;;;;;;9.30;3.80;;;;;;;3.30;68.85;98421.66;109248;1274;137511;-59
2022/02/19 08:18:29;;;;;;;6.90;3.60;;;;;;;3.33;69.18;98408.57;109430;1273;22599;-59
2022/02/19 08:20:57;;;;;;;6.80;4.00;;;;;;;3.34;69.15;98412.48;109298;1273;137998;-59
2022/02/19 08:23:25;;;;;;;8.30;3.90;;;;;;;3.35;69.49;98414.38;109344;1273;22472;-58
2022/02/19 08:25:55;;;;;;;11.50;4.30;;;;;;;3.37;69.52;98429.83;109458;1273;22412;-58
2022/02/19 08:28:23;;;;;;;9.70;4.20;;;;;;;3.37;69.54;98429.27;109320;1273;137264;-58
2022/02/19 08:30:51;;;;;;;11.30;4.60;;;;;;;3.37;69.45;98444.02;109421;1272;22423;-59
2022/02/19 08:33:19;;;;;;;7.10;4.00;;;;;;;3.36;69.56;98436.91;109295;1273;137468;-58
2022/02/19 08:35:47;;;;;;;8.30;4.10;;;;;;;3.34;69.24;98432.40;109443;1273;22872;-58
2022/02/19 08:38:15;;;;;;;8.40;4.10;;;;;;;3.36;69.17;98414.81;109423;1272;22509;-58
2022/02/19 08:40:43;;;;;;;12.40;5.20;;;;;;;3.35;69.18;98419.75;106282;1274;136877;-58
2022/02/19 08:43:11;;;;;;;8.90;4.80;;;;;;;3.35;68.97;98424.72;104905;1273;25220;-58
2022/02/19 08:45:39;;;;;;;7.10;3.80;;;;;;;3.35;68.97;98411.59;104738;1273;137691;-58
2022/02/19 08:48:08;;;;;;;10.70;5.10;;;;;;;3.34;68.59;98406.12;104818;1273;24309;-58
2022/02/19 08:50:38;;;;;;;12.50;5.70;;;;;;;3.37;68.90;98394.65;104816;1273;138035;-58
2022/02/19 08:53:09;;;;;;;16.00;6.60;;;;;;;3.39;69.01;98401.16;109354;1273;22501;-58
2022/02/19 08:55:38;;;;;;;16.80;5.50;;;;;;;3.40;68.92;98397.47;109347;1273;22454;-58
2022/02/19 08:58:07;;;;;;;15.40;6.50;;;;;;;3.40;68.75;98412.17;109289;1273;137890;-59
2022/02/19 09:00:35;;;;;;;12.50;5.80;;;;;;;3.40;68.79;98407.85;109473;1273;23037;-58
2022/02/19 09:03:04;;;;;;;15.60;6.90;;;;;;;3.40;69.02;98411.04;109286;1273;137308;-59
2022/02/19 09:05:32;;;;;;;13.70;5.90;;;;;;;3.40;68.79;98391.98;109466;1273;22465;-58
2022/02/19 09:08:02;;;;;;;13.30;5.80;;;;;;;3.39;68.81;98407.05;109446;1273;23366;-58
2022/02/19 09:10:36;;;;;;;14.60;6.10;;;;;;;3.39;68.86;98405.38;109285;1273;138018;-59
2022/02/19 09:13:05;;;;;;;12.80;6.10;;;;;;;3.38;68.81;98401.10;109325;1273;22551;-59
2022/02/19 09:15:33;;;;;;;13.20;5.40;;;;;;;3.37;68.82;98402.48;109339;1273;137470;-59
2022/02/19 09:18:02;;;;;;;12.80;5.10;;;;;;;3.39;68.78;98412.89;109439;1273;23733;-59
2022/02/19 09:20:30;;;;;;;13.80;5.20;;;;;;;3.39;69.06;98427.34;109370;1272;137866;-59
2022/02/19 09:22:58;;;;;;;8.70;4.60;;;;;;;3.40;68.78;98425.79;109446;1273;22529;-59
2022/02/19 09:25:26;;;;;;;10.60;4.60;;;;;;;3.41;69.07;98430.83;109433;1273;23333;-58
2022/02/19 09:27:54;;;;;;;8.60;4.60;;;;;;;3.43;68.86;98420.42;109321;1273;137901;-58
2022/02/19 09:30:22;;;;;;;9.80;3.60;;;;;;;3.44;69.17;98414.04;109418;1272;22534;-59
2022/02/19 09:32:50;;;;;;;9.40;4.20;;;;;;;3.45;68.97;98402.63;109318;1272;137502;-58
2022/02/19 09:35:18;;;;;;;11.00;4.60;;;;;;;3.46;69.20;98410.56;109469;1273;22483;-59
2022/02/19 09:37:46;;;;;;;7.90;4.30;;;;;;;3.49;69.16;98419.71;109494;1273;22504;-59
2022/02/19 09:40:14;;;;;;;9.80;4.90;;;;;;;3.51;69.07;98420.83;109229;1273;137619;-61
2022/02/19 09:42:42;;;;;;;8.30;4.40;;;;;;;3.52;68.85;98406.64;109463;1271;22400;-60
2022/02/19 09:45:10;;;;;;;7.80;4.50;;;;;;;3.54;69.17;98396.35;109354;1273;137392;-60
2022/02/19 09:47:39;;;;;;;10.10;5.20;;;;;;;3.57;69.20;98359.40;109494;1273;22769;-61
2022/02/19 09:50:07;;;;;;;11.20;5.10;;;;;;;3.61;69.26;98347.50;109391;1273;22521;-61
2022/02/19 09:52:38;;;;;;;10.90;5.00;;;;;;;3.63;69.40;98335.15;109396;1273;137764;-61
2022/02/19 09:55:07;;;;;;;7.80;4.40;;;;;;;3.71;69.63;98307.23;109448;1273;22483;-60
2022/02/19 09:57:35;;;;;;;13.30;4.50;;;;;;;3.79;69.84;98317.27;109218;1273;137897;-61
2022/02/19 10:00:06;;;;;;;11.70;4.70;;;;;;;3.88;69.86;98315.23;109430;1273;22400;-61
2022/02/19 10:02:41;;;;;;;10.30;4.20;;;;;;;3.97;69.62;98294.95;109357;1273;139038;-60
2022/02/19 10:05:14;;;;;;;8.40;4.30;;;;;;;4.06;69.53;98305.27;109475;1273;22605;-60
2022/02/19 10:07:46;;;;;;;11.50;5.00;;;;;;;4.13;69.45;98352.19;109368;1274;23081;-60
2022/02/19 10:10:26;;;;;;;10.30;5.10;;;;;;;4.21;69.32;98327.66;109114;1273;137202;-61
2022/02/19 10:12:55;;;;;;;6.80;4.10;;;;;;;4.30;69.38;98348.08;109500;1272;22463;-60
2022/02/19 10:15:38;;;;;;;10.20;3.90;;;;;;;4.35;69.26;98373.92;109328;1273;139463;-60
2022/02/19 10:18:24;;;;;;;9.10;4.30;;;;;;;4.41;69.24;98388.53;109282;1274;22424;-61
2022/02/19 10:21:14;;;;;;;8.30;3.90;;;;;;;4.46;68.98;98382.52;109236;1273;137825;-60
2022/02/19 10:23:49;;;;;;;6.30;3.30;;;;;;;4.48;68.65;98372.13;109504;1273;22438;-61
2022/02/19 10:26:20;;;;;;;9.30;4.20;;;;;;;4.54;68.75;98369.64;109437;1273;23155;-61
2022/02/19 10:29:15;;;;;;;10.70;4.10;;;;;;;4.58;68.33;98380.34;109360;1273;138099;-61
2022/02/19 10:31:43;;;;;;;11.40;4.60;;;;;;;4.62;68.26;98386.05;109426;1271;22478;-61
2022/02/19 10:34:14;;;;;;;14.90;6.20;;;;;;;4.64;68.12;98385.80;108982;1275;138137;-61
2022/02/19 10:36:46;;;;;;;19.50;8.30;;;;;;;4.68;68.65;98396.76;109450;1273;22649;-61
2022/02/19 10:39:14;;;;;;;16.20;7.30;;;;;;;4.71;68.56;98390.88;109376;1273;138841;-59
2022/02/19 10:41:42;;;;;;;20.10;8.00;;;;;;;4.74;68.28;98393.57;109500;1273;22257;-59
2022/02/19 10:44:23;;;;;;;14.10;7.30;;;;;;;4.78;68.08;98401.27;109469;1273;22421;-58
2022/02/19 10:46:56;;;;;;;8.60;4.90;;;;;;;4.82;68.19;98399.77;109321;1273;138561;-59
2022/02/19 10:49:25;;;;;;;27.00;10.00;;;;;;;4.88;68.24;98415.84;109489;1273;23395;-58
2022/02/19 10:51:53;;;;;;;19.60;8.20;;;;;;;4.93;68.50;98414.83;109393;1272;138229;-59
2022/02/19 10:54:22;;;;;;;14.20;7.00;;;;;;;4.99;68.23;98403.19;109231;1273;22479;-58
2022/02/19 10:56:50;;;;;;;11.50;5.50;;;;;;;5.04;68.07;98407.69;109391;1273;137445;-59
2022/02/19 10:59:25;;;;;;;11.50;5.50;;;;;;;5.07;68.36;98396.55;109493;1273;22221;-59
2022/02/19 11:01:53;;;;;;;10.20;5.30;;;;;;;5.10;68.16;98399.35;109173;1273;23450;-58
2022/02/19 11:04:22;;;;;;;9.00;4.50;;;;;;;5.13;67.88;98396.52;109352;1273;138190;-59
2022/02/19 11:06:52;;;;;;;9.10;4.60;;;;;;;5.15;68.09;98388.84;109494;1272;22509;-59
2022/02/19 11:09:21;;;;;;;9.50;4.60;;;;;;;5.16;67.91;98399.37;109270;1273;137202;-58
2022/02/19 11:11:50;;;;;;;9.60;4.30;;;;;;;5.16;67.87;98389.13;109258;1273;22678;-59
2022/02/19 11:14:18;;;;;;;10.90;4.80;;;;;;;5.18;67.60;98394.66;109413;1273;22532;-59
2022/02/19 11:16:46;;;;;;;8.30;3.90;;;;;;;5.19;67.52;98399.47;109331;1273;137624;-59
2022/02/19 11:19:16;;;;;;;9.70;4.40;;;;;;;5.22;67.82;98394.20;109448;1273;23514;-59
2022/02/19 11:21:44;;;;;;;14.80;5.00;;;;;;;5.23;67.67;98395.19;109317;1273;138001;-59
2022/02/19 11:24:12;;;;;;;12.00;5.10;;;;;;;5.25;67.67;98393.22;109335;1273;22407;-59
2022/02/19 11:26:40;;;;;;;10.40;4.40;;;;;;;5.29;67.83;98396.46;109169;1273;138952;-58
2022/02/19 11:29:13;;;;;;;10.50;4.90;;;;;;;5.32;67.78;98375.88;109189;1273;22472;-58
2022/02/19 11:31:41;;;;;;;8.20;4.20;;;;;;;5.37;67.48;98356.95;109319;1273;22529;-59
2022/02/19 11:34:09;;;;;;;8.20;4.20;;;;;;;5.41;67.61;98348.86;109221;1273;137460;-58
2022/02/19 11:36:37;;;;;;;9.50;4.60;;;;;;;5.46;67.63;98357.56;109243;1274;22506;-59
2022/02/19 11:39:05;;;;;;;12.80;4.60;;;;;;;5.50;67.50;98371.70;109328;1273;137233;-57
2022/02/19 11:41:40;;;;;;;10.80;4.40;;;;;;;5.53;67.09;98380.11;109480;1273;22580;-58
2022/02/19 11:44:18;;;;;;;10.80;5.40;;;;;;;5.55;67.17;98380.07;109411;1273;23452;-58
2022/02/19 11:46:47;;;;;;;9.30;4.90;;;;;;;5.56;66.93;98384.84;109324;1273;138328;-59
2022/02/19 11:49:35;;;;;;;8.70;5.30;;;;;;;5.57;67.14;98384.53;109435;1273;22267;-58
2022/02/19 11:52:06;;;;;;;;;;;;;;;5.58;67.05;98372.05;109306;1273;137469;-58
2022/02/19 11:54:54;;;;;;;12.70;5.20;;;;;;;5.62;67.07;98372.11;109484;1273;22480;-59
2022/02/19 11:57:22;;;;;;;12.60;5.20;;;;;;;5.63;67.46;98351.45;109089;1273;141259;-59
2022/02/19 11:59:50;;;;;;;13.50;5.60;;;;;;;5.67;67.11;98358.53;109445;1273;23338;-58
2022/02/19 12:02:23;;;;;;;10.00;4.70;;;;;;;5.71;67.40;98362.19;109340;1273;22574;-58
2022/02/19 12:05:21;;;;;;;13.60;5.60;;;;;;;5.75;67.25;98354.23;109368;1272;137808;-59